バマコ の空港の天気 - METARとTAF

バマコ・セヌー国際空港 ( GABS / BKO ) - マリ バマコ
飛行場実況気象(Metar)
観測時間09/24 23:30 GMT (09/24 23:30 UTC)
風向・風速西北西 3m/s
視程10km以上
天気現象
少しの雲 雲底高度 610m
少しの雲 雲底高度 910m
気温27℃
湿度89%
気圧1016hPa
METARGABS 242330Z 30005KT 9999 TS FEW020 FEW030CB 27/25 Q1016 NOSIG
過去の天気等 Google飛行場航空写真 Wunderground天気予報

過去48時間のMETAR

飛行場予報(TAF)
発表時間: 9/24 23:00 GMT (9/24 23:00 UTC)
予報対象時間: 25日0時 GMT ~ 26日6時 GMT
風向・風速西 3m/s
視程10km以上
少しの雲 雲底高度 610m
25日2時 GMT ~ 25日8時 GMT に一時的に
風向・風速東 9m/s 瞬間風速 15m/s
視程3000m
天気現象雷雨 高い風塵
全天の4割程度の雲 雲底高度 610m
全天の4割程度の積乱雲 雲底高度 910m
TAF GABS 242300Z 2500/2606 28006KT 9999 FEW020
TEMPO 2502/2508 10018G30KT 3000 TSRA BLDU SCT020 SCT030CB